createdAt,value
2019-02-08T00:00:19.454Z,1.9
2019-02-08T00:01:19.514Z,1.9
2019-02-08T00:02:19.439Z,1.9
2019-02-08T00:03:19.426Z,1.8
2019-02-08T00:04:19.780Z,1.8
2019-02-08T00:05:19.712Z,1.9
2019-02-08T00:06:19.618Z,1.8
2019-02-08T00:07:19.544Z,1.8
2019-02-08T00:08:19.494Z,1.8
2019-02-08T00:09:20.014Z,1.9
2019-02-08T00:10:21.003Z,1.9
2019-02-08T00:11:20.960Z,1.8
2019-02-08T00:12:20.871Z,1.8
2019-02-08T00:13:20.866Z,1.8
2019-02-08T00:14:21.267Z,1.8
2019-02-08T00:15:21.196Z,1.8
2019-02-08T00:16:21.187Z,1.8
2019-02-08T00:17:21.179Z,1.8
2019-02-08T00:18:21.145Z,1.9
2019-02-08T00:19:21.073Z,1.9
2019-02-08T00:20:21.008Z,1.9
2019-02-08T00:21:21.014Z,1.9
2019-02-08T00:22:20.954Z,1.9
2019-02-08T00:23:27.949Z,1.8
2019-02-08T00:24:28.380Z,1.8
2019-02-08T00:25:29.038Z,1.8
2019-02-08T00:26:30.154Z,1.8
2019-02-08T00:27:30.109Z,1.8
2019-02-08T00:28:30.055Z,1.8
2019-02-08T00:29:29.981Z,1.8
2019-02-08T00:30:30.013Z,1.8
2019-02-08T00:31:29.986Z,1.8
2019-02-08T00:32:29.967Z,1.8
2019-02-08T00:33:29.909Z,1.8
2019-02-08T00:34:30.297Z,1.8
2019-02-08T00:35:30.247Z,1.7
2019-02-08T00:36:30.181Z,1.8
2019-02-08T00:37:30.109Z,1.8
2019-02-08T00:38:30.024Z,1.7
2019-02-08T00:39:29.965Z,1.8
2019-02-08T00:40:30.566Z,1.8
2019-02-08T00:41:31.559Z,1.7
2019-02-08T00:42:31.481Z,1.8
2019-02-08T00:43:31.398Z,1.8
2019-02-08T00:44:31.814Z,1.7
2019-02-08T00:45:31.751Z,1.7
2019-02-08T00:46:31.664Z,1.7
2019-02-08T00:47:31.583Z,1.8
2019-02-08T00:48:32.171Z,1.8
2019-02-08T00:49:33.247Z,1.8
2019-02-08T00:50:33.169Z,1.7
2019-02-08T00:51:33.113Z,1.7
2019-02-08T00:52:33.041Z,1.7
2019-02-08T00:53:34.198Z,1.7
2019-02-08T00:54:34.599Z,1.7
2019-02-08T00:55:34.605Z,1.7
2019-02-08T00:56:34.554Z,1.7
2019-02-08T00:57:34.462Z,1.7
2019-02-08T00:58:34.406Z,1.8
2019-02-08T00:59:34.364Z,1.9
2019-02-08T01:00:34.286Z,2
2019-02-08T01:04:35.593Z,2.2
2019-02-08T01:05:35.501Z,2.2
2019-02-08T01:06:35.410Z,2.3
2019-02-08T01:07:35.341Z,2.3
2019-02-08T01:08:35.261Z,2.3
2019-02-08T01:09:35.211Z,2.4
2019-02-08T01:10:35.147Z,2.4
2019-02-08T01:11:35.057Z,2.4
2019-02-08T01:12:34.967Z,2.4
2019-02-08T01:13:34.879Z,2.5
2019-02-08T01:14:35.271Z,2.4
2019-02-08T01:15:35.217Z,2.5
2019-02-08T01:16:35.167Z,2.5
2019-02-08T01:17:35.087Z,2.5
2019-02-08T01:18:35.589Z,2.5
2019-02-08T01:19:36.831Z,2.5
2019-02-08T01:20:36.783Z,2.4
2019-02-08T01:21:36.699Z,2.4
2019-02-08T01:22:36.611Z,2.4
2019-02-08T01:23:41.931Z,2.3
2019-02-08T01:24:42.288Z,2.3
2019-02-08T01:25:42.190Z,2.3
2019-02-08T01:26:42.077Z,2.3
2019-02-08T01:27:41.963Z,2.2
2019-02-08T01:28:41.861Z,2.2
2019-02-08T01:29:41.745Z,2.2
2019-02-08T01:30:41.625Z,2.1
2019-02-08T01:31:41.512Z,2.1
2019-02-08T01:32:41.415Z,2.1
2019-02-08T01:33:41.349Z,2.1
2019-02-08T01:34:41.662Z,2.1
2019-02-08T01:35:41.584Z,2.1
2019-02-08T01:36:41.482Z,2
2019-02-08T01:37:41.350Z,2
2019-02-08T01:38:41.285Z,2
2019-02-08T01:39:41.183Z,2
2019-02-08T01:40:41.059Z,2
2019-02-08T01:41:40.977Z,1.9
2019-02-08T01:42:40.863Z,2
2019-02-08T01:43:40.737Z,2
2019-02-08T01:44:41.053Z,1.9
2019-02-08T01:45:40.961Z,1.9
2019-02-08T01:46:40.850Z,1.9
2019-02-08T01:47:40.749Z,1.9
2019-02-08T01:48:40.634Z,1.9
2019-02-08T01:49:40.541Z,1.9
2019-02-08T01:50:40.451Z,1.8
2019-02-08T01:51:40.314Z,1.8
2019-02-08T01:52:40.220Z,1.8
2019-02-08T01:53:40.097Z,1.8
2019-02-08T01:54:40.415Z,1.8
2019-02-08T01:55:40.308Z,1.8
2019-02-08T01:56:40.210Z,1.7
2019-02-08T01:57:40.092Z,1.7
2019-02-08T01:58:39.994Z,1.7
2019-02-08T01:59:39.876Z,1.7
2019-02-08T02:00:39.794Z,1.6
2019-02-08T02:01:39.674Z,1.6
2019-02-08T02:02:39.589Z,1.6
2019-02-08T02:03:39.468Z,1.6
2019-02-08T02:04:39.757Z,1.6
2019-02-08T02:05:39.651Z,1.6
2019-02-08T02:06:39.525Z,1.5
2019-02-08T02:07:39.402Z,1.4
2019-02-08T02:08:39.295Z,1.5
2019-02-08T02:09:39.207Z,1.5
2019-02-08T02:10:39.112Z,1.5
2019-02-08T02:11:38.982Z,1.5
2019-02-08T02:12:38.870Z,1.5
2019-02-08T02:13:38.771Z,1.4
2019-02-08T02:14:39.081Z,1.4
2019-02-08T02:15:38.963Z,1.4
2019-02-08T02:16:38.839Z,1.4
2019-02-08T02:17:38.752Z,1.4
2019-02-08T02:18:38.638Z,1.4
2019-02-08T02:19:38.557Z,1.4
2019-02-08T02:20:38.442Z,1.4
2019-02-08T02:21:38.368Z,1.3
2019-02-08T02:22:38.256Z,1.3
2019-02-08T02:23:38.140Z,1.3
2019-02-08T02:24:38.479Z,1.3
2019-02-08T02:25:38.361Z,1.3
2019-02-08T02:26:38.250Z,1.3
2019-02-08T02:27:38.128Z,1.3
2019-02-08T02:28:38.004Z,1.3
2019-02-08T02:29:37.922Z,1.2
2019-02-08T02:30:37.824Z,1.2
2019-02-08T02:31:37.744Z,1.2
2019-02-08T02:32:37.632Z,1.2
2019-02-08T02:33:37.534Z,1.2
2019-02-08T02:34:37.956Z,1.2
2019-02-08T02:35:37.897Z,1.2
2019-02-08T02:36:37.858Z,1.2
2019-02-08T02:37:37.754Z,1.1
2019-02-08T02:38:37.647Z,1.1
2019-02-08T02:39:37.534Z,1.1
2019-02-08T02:40:37.444Z,1.1
2019-02-08T02:41:37.345Z,1.1
2019-02-08T02:42:37.249Z,1.1
2019-02-08T02:43:37.171Z,1.1
2019-02-08T02:44:37.510Z,1.1
2019-02-08T02:45:37.417Z,1.1
2019-02-08T02:46:37.379Z,1.1
2019-02-08T02:47:37.295Z,1.1
2019-02-08T02:48:37.224Z,1.1
2019-02-08T02:49:37.114Z,1.1
2019-02-08T02:50:37.054Z,1.1
2019-02-08T02:51:36.959Z,1.1
2019-02-08T02:52:36.919Z,1.1
2019-02-08T02:53:36.815Z,1.1
2019-02-08T02:54:37.154Z,1.1
2019-02-08T02:55:37.038Z,1.1
2019-02-08T02:56:36.946Z,1.2
2019-02-08T02:57:36.816Z,1.1
2019-02-08T02:58:36.710Z,1.2
2019-02-08T02:59:36.594Z,1.1
2019-02-08T03:00:36.497Z,1.1
2019-02-08T03:01:36.408Z,1.1
2019-02-08T03:02:36.285Z,1.1
2019-02-08T03:03:36.160Z,1.1
2019-02-08T03:04:36.544Z,1.1
2019-02-08T03:05:36.435Z,1
2019-02-08T03:06:36.357Z,1
2019-02-08T03:07:36.272Z,1
2019-02-08T03:08:36.162Z,1
2019-02-08T03:09:36.050Z,1
2019-02-08T03:10:35.932Z,0.9
2019-02-08T03:11:35.836Z,0.9
2019-02-08T03:12:35.775Z,0.9
2019-02-08T03:13:35.680Z,0.9
2019-02-08T03:14:36.024Z,0.9
2019-02-08T03:15:35.925Z,0.8
2019-02-08T03:16:35.846Z,0.8
2019-02-08T03:17:35.770Z,0.9
2019-02-08T03:22:34.574Z,1.4
2019-02-08T03:23:34.472Z,1.4
2019-02-08T03:24:43.050Z,1.5
2019-02-08T03:25:42.916Z,1.6
2019-02-08T03:26:42.806Z,1.6
2019-02-08T03:28:42.454Z,1.6
2019-02-08T03:29:42.337Z,1.7
2019-02-08T03:30:42.288Z,1.7
2019-02-08T03:31:42.382Z,1.7
2019-02-08T03:32:42.354Z,1.7
2019-02-08T03:33:42.342Z,1.7
2019-02-08T03:34:42.647Z,1.7
2019-02-08T03:35:42.552Z,1.7
2019-02-08T03:36:42.430Z,1.7
2019-02-08T03:37:42.311Z,1.8
2019-02-08T03:38:42.206Z,1.8
2019-02-08T03:39:42.102Z,1.8
2019-02-08T03:40:42.004Z,1.9
2019-02-08T03:41:41.908Z,1.9
2019-02-08T03:42:41.800Z,1.9
2019-02-08T03:43:41.710Z,2
2019-02-08T03:44:42.067Z,2
2019-02-08T03:45:41.986Z,2
2019-02-08T03:46:41.916Z,2.1
2019-02-08T03:47:41.838Z,2.1
2019-02-08T03:48:41.740Z,2.1
2019-02-08T03:49:41.626Z,2.1
2019-02-08T03:50:41.519Z,2.1
2019-02-08T03:51:41.428Z,2.2
2019-02-08T03:52:41.368Z,2.2
2019-02-08T03:53:41.269Z,2.2
2019-02-08T03:54:41.603Z,2.1
2019-02-08T03:55:41.476Z,2.2
2019-02-08T03:56:41.370Z,2.1
2019-02-08T03:57:41.329Z,2.1
2019-02-08T03:58:41.255Z,2.1
2019-02-08T03:59:41.168Z,2.1
2019-02-08T04:00:41.068Z,2.1
2019-02-08T04:01:40.964Z,2
2019-02-08T04:02:40.853Z,2
2019-02-08T04:03:40.785Z,2
2019-02-08T04:04:41.124Z,1.9
2019-02-08T04:05:41.011Z,1.8
2019-02-08T04:06:40.906Z,1.8
2019-02-08T04:07:40.805Z,1.7
2019-02-08T04:08:40.731Z,1.7
2019-02-08T04:09:40.649Z,1.7
2019-02-08T04:11:40.307Z,1.7
2019-02-08T04:12:40.184Z,1.8
2019-02-08T04:13:40.099Z,1.8
2019-02-08T04:14:40.422Z,1.8
2019-02-08T04:15:40.312Z,1.8
2019-02-08T04:16:40.185Z,1.8
2019-02-08T04:17:40.093Z,1.7
2019-02-08T04:18:40.079Z,1.7
2019-02-08T04:19:40.006Z,1.7
2019-02-08T04:20:39.970Z,1.6
2019-02-08T04:21:39.856Z,1.5
2019-02-08T04:22:39.737Z,1.5
2019-02-08T04:23:39.650Z,1.4
2019-02-08T04:24:39.937Z,1.2
2019-02-08T04:25:39.814Z,1.2
2019-02-08T04:26:39.689Z,1.2
2019-02-08T04:27:39.564Z,1.2
2019-02-08T04:28:39.461Z,1.2
2019-02-08T04:29:39.369Z,1.1
2019-02-08T04:30:39.273Z,1.1
2019-02-08T04:31:39.151Z,1.1
2019-02-08T04:32:39.041Z,1
2019-02-08T04:33:38.959Z,1
2019-02-08T04:34:39.300Z,0.9
2019-02-08T04:35:39.230Z,0.9
2019-02-08T04:36:39.117Z,0.9
2019-02-08T04:37:39.009Z,0.9
2019-02-08T04:38:38.952Z,0.9
2019-02-08T04:40:38.583Z,1.1
2019-02-08T04:42:38.189Z,1.3
2019-02-08T04:43:38.081Z,1.4
2019-02-08T04:44:38.419Z,1.4
2019-02-08T04:45:38.315Z,1.4
2019-02-08T04:46:38.196Z,1.3
2019-02-08T04:47:38.093Z,1.3
2019-02-08T04:48:37.983Z,1.2
2019-02-08T04:49:37.920Z,1.1
2019-02-08T04:50:37.861Z,1.2
2019-02-08T04:51:37.741Z,1.1
2019-02-08T04:52:37.677Z,1.1
2019-02-08T04:53:37.587Z,1
2019-02-08T04:54:39.156Z,1
2019-02-08T04:55:39.059Z,1
2019-02-08T04:56:38.999Z,0.9
2019-02-08T04:57:40.169Z,0.9
2019-02-08T04:58:40.063Z,0.8
2019-02-08T04:59:39.963Z,0.8
2019-02-08T05:00:39.866Z,0.8
2019-02-08T05:01:39.755Z,0.7
2019-02-08T05:02:39.642Z,0.7
2019-02-08T05:03:39.548Z,0.7
2019-02-08T05:04:39.841Z,0.6
2019-02-08T05:05:39.757Z,0.6
2019-02-08T05:06:39.651Z,0.5
2019-02-08T05:07:39.555Z,0.5
2019-02-08T05:08:39.456Z,0.5
2019-02-08T05:09:39.379Z,0.4
2019-02-08T05:10:39.299Z,0.4
2019-02-08T05:11:39.186Z,0.4
2019-02-08T05:12:39.063Z,0.4
2019-02-08T05:13:38.974Z,0.4
2019-02-08T05:14:39.342Z,0.3
2019-02-08T05:15:39.236Z,0.3
2019-02-08T05:16:39.139Z,0.3
2019-02-08T05:17:39.023Z,0.3
2019-02-08T05:18:38.918Z,0.3
2019-02-08T05:19:38.797Z,0.2
2019-02-08T05:20:38.711Z,0.2
2019-02-08T05:21:38.606Z,0.2
2019-02-08T05:22:38.493Z,0.2
2019-02-08T05:23:38.383Z,0.2
2019-02-08T05:24:46.593Z,0.2
2019-02-08T05:25:46.520Z,0.1
2019-02-08T05:26:46.401Z,0.1
2019-02-08T05:27:46.281Z,0.1
2019-02-08T05:28:46.151Z,0.1
2019-02-08T05:29:46.032Z,0.1
2019-02-08T05:30:45.929Z,0.1
2019-02-08T05:31:45.836Z,0.1
2019-02-08T05:32:45.727Z,0.1
2019-02-08T05:33:45.605Z,0.1
2019-02-08T05:34:45.941Z,0.1
2019-02-08T05:35:45.833Z,0.1
2019-02-08T05:36:45.753Z,0.1
2019-02-08T05:37:45.625Z,0.1
2019-02-08T05:38:45.505Z,0.1
2019-02-08T05:39:45.437Z,0.1
2019-02-08T05:40:45.377Z,0.1
2019-02-08T05:41:45.279Z,0
2019-02-08T05:42:45.211Z,0
2019-02-08T05:43:45.115Z,0
2019-02-08T05:44:45.415Z,0
2019-02-08T05:45:45.297Z,0
2019-02-08T05:46:45.221Z,0
2019-02-08T05:54:43.730Z,0.6
2019-02-08T05:55:43.628Z,0.5
2019-02-08T05:56:43.516Z,0.5
2019-02-08T05:57:43.402Z,0.5
2019-02-08T05:58:43.303Z,0.4
2019-02-08T05:59:43.186Z,0.4
2019-02-08T06:00:43.092Z,0.4
2019-02-08T06:01:42.994Z,0.3
2019-02-08T06:02:43.065Z,0.3
2019-02-08T06:03:43.167Z,0.3
2019-02-08T06:04:44.156Z,0.3
2019-02-08T06:05:44.030Z,0.3
2019-02-08T06:06:43.928Z,0.2
2019-02-08T06:07:43.819Z,0.2
2019-02-08T06:08:43.745Z,0.2
2019-02-08T06:09:43.656Z,0.1
2019-02-08T06:10:43.542Z,0.1
2019-02-08T06:11:43.434Z,0.1
2019-02-08T06:12:43.321Z,0.1
2019-02-08T06:13:43.235Z,0.1
2019-02-08T06:14:43.550Z,0.1
2019-02-08T06:15:43.458Z,0
2019-02-08T06:16:43.362Z,0
2019-02-08T06:17:43.283Z,0
2019-02-08T06:18:43.244Z,0
2019-02-08T06:19:43.179Z,0
2019-02-08T06:20:43.066Z,0
2019-02-08T06:21:42.963Z,0
2019-02-08T06:22:42.876Z,0
2019-02-08T06:23:42.815Z,-0.1
2019-02-08T06:24:43.177Z,-0.1
2019-02-08T06:25:43.098Z,-0.1
2019-02-08T06:26:43.004Z,-0.1
2019-02-08T06:27:42.907Z,-0.1
2019-02-08T06:28:42.792Z,-0.1
2019-02-08T06:29:42.698Z,-0.1
2019-02-08T06:30:42.593Z,-0.2
2019-02-08T06:31:42.494Z,-0.1
2019-02-08T06:32:42.396Z,-0.2
2019-02-08T06:33:42.269Z,-0.2
2019-02-08T06:34:42.584Z,-0.2
2019-02-08T06:35:42.502Z,-0.1
2019-02-08T06:36:42.384Z,-0.2
2019-02-08T06:38:44.906Z,0
2019-02-08T06:44:43.939Z,0.4
2019-02-08T06:45:43.842Z,0.3
2019-02-08T06:46:43.733Z,0.3
2019-02-08T06:47:43.690Z,0.2
2019-02-08T06:48:43.565Z,0.2
2019-02-08T06:49:43.464Z,0.2
2019-02-08T06:50:43.348Z,0.2
2019-02-08T06:51:43.229Z,0.2
2019-02-08T06:52:43.098Z,0.1
2019-02-08T06:53:42.978Z,0.1
2019-02-08T06:54:43.306Z,0.1
2019-02-08T06:55:43.200Z,0.1
2019-02-08T06:56:43.078Z,0
2019-02-08T06:57:42.959Z,0
2019-02-08T06:58:42.848Z,0
2019-02-08T06:59:42.742Z,0
2019-02-08T07:00:42.665Z,0
2019-02-08T07:01:42.619Z,0
2019-02-08T07:02:42.491Z,0
2019-02-08T07:03:42.383Z,0
2019-02-08T07:04:42.705Z,0
2019-02-08T07:05:42.596Z,0
2019-02-08T07:06:42.498Z,-0.1
2019-02-08T07:07:42.377Z,-0.1
2019-02-08T07:08:42.250Z,-0.1
2019-02-08T07:09:42.151Z,0
2019-02-08T07:10:42.137Z,0
2019-02-08T07:11:42.066Z,-0.1
2019-02-08T07:12:41.963Z,-0.1
2019-02-08T07:13:41.846Z,-0.1
2019-02-08T07:14:42.176Z,0
2019-02-08T07:15:42.104Z,-0.1
2019-02-08T07:16:42.006Z,0
2019-02-08T07:17:41.884Z,0
2019-02-08T07:18:41.793Z,0.1
2019-02-08T07:19:41.714Z,0.2
2019-02-08T07:20:41.602Z,0.2
2019-02-08T07:21:41.490Z,0.3
2019-02-08T07:22:41.376Z,0.3
2019-02-08T07:23:41.253Z,0.3
2019-02-08T07:24:41.613Z,0.3
2019-02-08T07:25:41.562Z,0.4
2019-02-08T07:26:41.474Z,0.5
2019-02-08T07:27:41.365Z,0.5
2019-02-08T07:28:41.252Z,0.5
2019-02-08T07:29:41.145Z,0.6
2019-02-08T07:30:41.091Z,0.6
2019-02-08T07:31:40.982Z,0.7
2019-02-08T07:32:40.878Z,0.8
2019-02-08T07:33:40.775Z,0.8
2019-02-08T07:34:41.093Z,1
2019-02-08T07:35:41.007Z,1
2019-02-08T07:36:40.891Z,1.1
2019-02-08T07:37:40.789Z,1.2
2019-02-08T07:38:40.685Z,1.3
2019-02-08T07:39:40.573Z,1.3
2019-02-08T07:40:40.454Z,1.4
2019-02-08T07:41:40.371Z,1.4
2019-02-08T07:42:40.252Z,1.4
2019-02-08T07:43:40.127Z,1.5
2019-02-08T07:44:40.420Z,1.6
2019-02-08T07:45:40.316Z,1.6
2019-02-08T07:46:40.219Z,1.7
2019-02-08T07:47:40.107Z,1.8
2019-02-08T07:48:40.003Z,1.9
2019-02-08T07:49:39.897Z,1.9
2019-02-08T07:50:39.805Z,2
2019-02-08T07:51:39.685Z,2
2019-02-08T07:52:39.591Z,2
2019-02-08T07:53:39.471Z,2
2019-02-08T07:54:39.783Z,2.1
2019-02-08T07:55:39.681Z,2
2019-02-08T07:56:39.581Z,2.1
2019-02-08T07:57:39.495Z,2.2
2019-02-08T07:58:39.386Z,2.3
2019-02-08T07:59:39.290Z,2.4
2019-02-08T08:00:39.176Z,2.5
2019-02-08T08:01:39.099Z,2.7
2019-02-08T08:02:38.981Z,2.7
2019-02-08T08:03:38.879Z,2.8
2019-02-08T08:04:39.186Z,2.9
2019-02-08T08:05:39.073Z,3
2019-02-08T08:06:38.984Z,3
2019-02-08T08:07:38.869Z,3.1
2019-02-08T08:08:38.781Z,3.1
2019-02-08T08:09:38.705Z,3.2
2019-02-08T08:10:38.597Z,3.1
2019-02-08T08:11:38.505Z,3.3
2019-02-08T08:12:38.391Z,3.2
2019-02-08T08:13:38.274Z,3.3
2019-02-08T08:14:38.578Z,3.4
2019-02-08T08:15:38.471Z,3.4
2019-02-08T08:16:38.354Z,3.5
2019-02-08T08:17:38.272Z,3.5
2019-02-08T08:18:38.148Z,3.5
2019-02-08T08:19:38.057Z,3.6
2019-02-08T08:20:37.955Z,3.5
2019-02-08T08:21:37.831Z,3.6
2019-02-08T08:22:37.757Z,3.7
2019-02-08T08:23:37.659Z,3.7
2019-02-08T08:24:37.978Z,3.8
2019-02-08T08:25:37.867Z,3.7
2019-02-08T08:26:37.766Z,3.8
2019-02-08T08:27:37.671Z,3.8
2019-02-08T08:28:37.580Z,3.8
2019-02-08T08:29:37.468Z,4
2019-02-08T08:30:37.363Z,4
2019-02-08T08:31:37.293Z,4
2019-02-08T08:32:37.421Z,4
2019-02-08T08:33:37.338Z,4
2019-02-08T08:34:37.696Z,4.1
2019-02-08T08:35:37.599Z,4.1
2019-02-08T08:36:37.500Z,4.1
2019-02-08T08:37:37.386Z,4
2019-02-08T08:38:37.270Z,4.1
2019-02-08T08:39:37.166Z,4.1
2019-02-08T08:40:37.070Z,4.1
2019-02-08T08:41:36.975Z,4.1
2019-02-08T08:42:36.881Z,4.2
2019-02-08T08:43:36.774Z,4.3
2019-02-08T08:44:37.198Z,4.2
2019-02-08T08:45:37.098Z,4.3
2019-02-08T08:46:36.992Z,4.3
2019-02-08T08:47:36.864Z,4.3
2019-02-08T08:48:36.774Z,4.4
2019-02-08T08:49:36.658Z,4.4
2019-02-08T08:50:36.565Z,4.3
2019-02-08T08:51:36.443Z,4.3
2019-02-08T08:52:36.342Z,4.4
2019-02-08T08:53:36.271Z,4.4
2019-02-08T08:54:36.605Z,4.3
2019-02-08T08:55:42.950Z,4.3
2019-02-08T08:56:42.838Z,4.3
2019-02-08T08:57:42.750Z,4.3
2019-02-08T08:58:42.632Z,4.4
2019-02-08T08:59:42.519Z,4.5
2019-02-08T09:00:42.438Z,4.5
2019-02-08T09:01:42.324Z,4.6
2019-02-08T09:02:42.224Z,4.7
2019-02-08T09:03:42.124Z,5.2
2019-02-08T09:04:42.592Z,4.5
2019-02-08T09:05:42.561Z,4.6
2019-02-08T09:06:42.498Z,4.6
2019-02-08T09:07:42.408Z,4.8
2019-02-08T09:08:42.362Z,4.8
2019-02-08T09:09:42.274Z,4.8
2019-02-08T09:10:42.157Z,4.8
2019-02-08T09:11:42.104Z,4.8
2019-02-08T09:12:42.021Z,4.8
2019-02-08T09:13:41.910Z,4.8
2019-02-08T09:14:42.232Z,4.8
2019-02-08T09:15:42.128Z,4.9
2019-02-08T09:16:42.016Z,4.8
2019-02-08T09:17:41.942Z,4.7
2019-02-08T09:18:41.857Z,4.7
2019-02-08T09:19:41.752Z,4.7
2019-02-08T09:20:41.648Z,4.7
2019-02-08T09:21:41.544Z,4.7
2019-02-08T09:22:41.475Z,4.8
2019-02-08T09:23:41.385Z,4.8
2019-02-08T09:24:41.748Z,4.8
2019-02-08T09:25:41.642Z,4.8
2019-02-08T09:26:49.382Z,4.7
2019-02-08T09:27:49.318Z,4.8
2019-02-08T09:28:49.206Z,4.8
2019-02-08T09:29:49.078Z,4.9
2019-02-08T09:30:48.964Z,4.8
2019-02-08T09:31:48.851Z,4.8
2019-02-08T09:32:48.726Z,4.9
2019-02-08T09:33:48.630Z,4.8
2019-02-08T09:34:48.944Z,4.9
2019-02-08T09:35:48.866Z,5
2019-02-08T09:36:48.800Z,5
2019-02-08T09:37:48.684Z,5.1
2019-02-08T09:38:48.618Z,5.1
2019-02-08T09:39:48.502Z,5.1
2019-02-08T09:40:48.396Z,5.1
2019-02-08T09:41:48.275Z,5.1
2019-02-08T09:42:48.185Z,5.1
2019-02-08T09:43:48.072Z,5.1
2019-02-08T09:44:48.404Z,5.1
2019-02-08T09:45:48.318Z,5.1
2019-02-08T09:46:48.203Z,5.2
2019-02-08T09:47:48.076Z,5.2
2019-02-08T09:48:47.964Z,5.2
2019-02-08T09:49:47.870Z,5.1
2019-02-08T09:50:47.750Z,5.2
2019-02-08T09:51:48.128Z,5.2
2019-02-08T09:52:48.033Z,5.2
2019-02-08T09:53:47.927Z,5.1
2019-02-08T09:54:48.317Z,5.1
2019-02-08T09:55:48.217Z,5.1
2019-02-08T09:56:48.093Z,5.1
2019-02-08T09:57:47.982Z,5.1
2019-02-08T09:58:47.871Z,5.1
2019-02-08T09:59:47.768Z,5
2019-02-08T10:00:47.666Z,4.9
2019-02-08T10:01:47.544Z,4.8
2019-02-08T10:02:47.454Z,4.6
2019-02-08T10:03:47.400Z,4.3
2019-02-08T10:04:47.753Z,4.1
2019-02-08T10:05:47.646Z,4.2
2019-02-08T10:06:47.540Z,4.4
2019-02-08T10:07:47.434Z,4.6
2019-02-08T10:08:47.320Z,4.7
2019-02-08T10:09:47.202Z,4.9
2019-02-08T10:10:47.113Z,5
2019-02-08T10:11:46.985Z,5.3
2019-02-08T10:12:46.879Z,5.4
2019-02-08T10:13:46.777Z,5.4
2019-02-08T10:14:47.088Z,5.5
2019-02-08T10:15:46.984Z,5.6
2019-02-08T10:16:46.873Z,5.6
2019-02-08T10:17:46.770Z,5.7
2019-02-08T10:18:46.642Z,5.7
2019-02-08T10:19:46.542Z,5.7
2019-02-08T10:20:46.426Z,5.7
2019-02-08T10:21:46.324Z,5.7
2019-02-08T10:22:46.275Z,5.7
2019-02-08T10:23:46.169Z,5.7
2019-02-08T10:24:46.496Z,5.6
2019-02-08T10:25:46.393Z,5.6
2019-02-08T10:26:46.287Z,5.6
2019-02-08T10:27:46.195Z,5.7
2019-02-08T10:28:46.096Z,5.7
2019-02-08T10:29:45.976Z,5.8
2019-02-08T10:30:45.859Z,5.9
2019-02-08T10:31:45.770Z,6
2019-02-08T10:32:45.673Z,6
2019-02-08T10:33:45.566Z,6
2019-02-08T10:34:47.477Z,6
2019-02-08T10:35:49.094Z,5.9
2019-02-08T10:36:49.018Z,5.7
2019-02-08T10:37:48.905Z,5.8
2019-02-08T10:38:48.815Z,5.7
2019-02-08T10:39:48.687Z,5.6
2019-02-08T10:40:48.574Z,5.6
2019-02-08T10:41:48.460Z,5.6
2019-02-08T10:42:48.369Z,5.7
2019-02-08T10:43:49.707Z,5.8
2019-02-08T10:44:52.575Z,5.8
2019-02-08T10:45:52.469Z,5.8
2019-02-08T10:46:52.411Z,5.9
2019-02-08T10:47:52.324Z,5.9
2019-02-08T10:48:52.205Z,5.8
2019-02-08T10:49:52.100Z,5.8
2019-02-08T10:50:52.003Z,5.8
2019-02-08T10:51:51.903Z,5.8
2019-02-08T10:52:51.811Z,5.8
2019-02-08T10:53:54.403Z,5.8
2019-02-08T10:54:57.864Z,5.8
2019-02-08T10:55:57.729Z,5.7
2019-02-08T10:56:57.613Z,5.8
2019-02-08T10:57:57.583Z,5.8
2019-02-08T10:58:57.503Z,5.8
2019-02-08T10:59:57.395Z,5.8
2019-02-08T11:00:57.286Z,5.8
2019-02-08T11:01:57.167Z,5.8
2019-02-08T11:02:57.047Z,5.8
2019-02-08T11:03:56.943Z,5.7
2019-02-08T11:04:57.255Z,5.7
2019-02-08T11:05:57.137Z,5.6
2019-02-08T11:06:57.033Z,5.7
2019-02-08T11:07:56.933Z,5.7
2019-02-08T11:08:56.903Z,5.8
2019-02-08T11:09:56.801Z,5.8
2019-02-08T11:10:56.685Z,5.8
2019-02-08T11:11:56.576Z,5.8
2019-02-08T11:12:56.489Z,5.9
2019-02-08T11:13:56.393Z,5.9
2019-02-08T11:14:56.693Z,5.9
2019-02-08T11:15:56.571Z,5.9
2019-02-08T11:16:56.463Z,5.8
2019-02-08T11:17:56.351Z,5.8
2019-02-08T11:18:56.256Z,5.8
2019-02-08T11:19:56.153Z,5.9
2019-02-08T11:20:56.054Z,5.9
2019-02-08T11:21:55.957Z,5.9
2019-02-08T11:22:55.871Z,5.9
2019-02-08T11:23:55.767Z,5.9
2019-02-08T11:24:56.103Z,5.9
2019-02-08T11:25:55.967Z,5.9
2019-02-08T11:26:55.875Z,5.9
2019-02-08T11:27:55.780Z,6
2019-02-08T11:28:55.658Z,6.1
2019-02-08T11:29:55.561Z,6.1
2019-02-08T11:30:55.437Z,6.2
2019-02-08T11:31:55.321Z,6.1
2019-02-08T11:32:55.229Z,6.2
2019-02-08T11:33:55.115Z,6.2
2019-02-08T11:34:55.461Z,6.3
2019-02-08T11:35:55.341Z,6.3
2019-02-08T11:36:55.229Z,6.4
2019-02-08T11:37:55.123Z,6.3
2019-02-08T11:38:55.006Z,6.3
2019-02-08T11:39:55.008Z,6.3
2019-02-08T11:40:54.905Z,6.3
2019-02-08T11:41:54.791Z,6.2
2019-02-08T11:42:54.707Z,6.3
2019-02-08T11:43:54.589Z,6.3
2019-02-08T11:44:54.896Z,6.3
2019-02-08T11:45:54.786Z,6.2
2019-02-08T11:46:54.689Z,6.2
2019-02-08T11:47:54.691Z,6.1
2019-02-08T11:48:54.630Z,6.1
2019-02-08T11:49:54.537Z,6.1
2019-02-08T11:50:54.429Z,6
2019-02-08T11:51:54.315Z,6.1
2019-02-08T11:52:54.202Z,6.1
2019-02-08T11:53:54.089Z,6.1
2019-02-08T11:54:54.427Z,6.1
2019-02-08T11:55:54.290Z,6.1
2019-02-08T11:56:54.196Z,6
2019-02-08T11:57:54.120Z,6
2019-02-08T11:58:54.009Z,5.9
2019-02-08T11:59:53.902Z,6
2019-02-08T12:00:53.802Z,6
2019-02-08T12:01:53.693Z,6
2019-02-08T12:02:53.576Z,6
2019-02-08T12:03:53.450Z,6.1
2019-02-08T12:04:53.764Z,6.1
2019-02-08T12:05:53.666Z,6
2019-02-08T12:06:53.547Z,6
2019-02-08T12:07:53.455Z,6
2019-02-08T12:08:53.350Z,5.9
2019-02-08T12:09:53.262Z,5.9
2019-02-08T12:10:53.152Z,5.9
2019-02-08T12:11:53.048Z,5.8
2019-02-08T12:12:52.940Z,5.8
2019-02-08T12:13:52.858Z,5.8
2019-02-08T12:14:53.262Z,5.8
2019-02-08T12:15:53.182Z,5.8
2019-02-08T12:16:53.072Z,5.7
2019-02-08T12:17:52.974Z,5.7
2019-02-08T12:18:52.874Z,5.6
2019-02-08T12:19:52.780Z,5.6
2019-02-08T12:20:52.651Z,5.6
2019-02-08T12:21:52.530Z,5.6
2019-02-08T12:22:52.420Z,5.7
2019-02-08T12:23:52.306Z,5.6
2019-02-08T12:24:53.208Z,5.6
2019-02-08T12:25:53.100Z,5.6
2019-02-08T12:26:52.984Z,5.6
2019-02-08T12:27:52.880Z,5.6
2019-02-08T12:28:52.786Z,5.5
2019-02-08T12:29:52.691Z,5.6
2019-02-08T12:30:52.582Z,5.6
2019-02-08T12:31:52.483Z,5.7
2019-02-08T12:32:52.416Z,5.7
2019-02-08T12:33:52.310Z,5.8
2019-02-08T12:34:52.624Z,5.7
2019-02-08T12:35:52.516Z,5.8
2019-02-08T12:36:52.419Z,5.9
2019-02-08T12:37:52.318Z,5.9
2019-02-08T12:38:52.250Z,5.9
2019-02-08T12:39:52.150Z,6
2019-02-08T12:40:52.042Z,6
2019-02-08T12:41:51.934Z,5.9
2019-02-08T12:42:51.832Z,5.9
2019-02-08T12:43:51.732Z,5.9
2019-02-08T12:44:52.090Z,5.8
2019-02-08T12:45:52.010Z,5.8
2019-02-08T12:46:51.920Z,5.8
2019-02-08T12:47:51.817Z,5.8
2019-02-08T12:48:51.710Z,5.8
2019-02-08T12:49:51.610Z,5.8
2019-02-08T12:50:51.498Z,5.8
2019-02-08T12:51:51.391Z,5.7
2019-02-08T12:52:51.283Z,5.7
2019-02-08T12:53:51.190Z,5.6
2019-02-08T12:54:51.581Z,5.6
2019-02-08T12:55:51.488Z,5.6
2019-02-08T12:56:51.395Z,5.6
2019-02-08T12:57:51.291Z,5.6
2019-02-08T12:58:51.197Z,5.6
2019-02-08T12:59:51.104Z,5.6
2019-02-08T13:00:51.038Z,5.6
2019-02-08T13:01:50.950Z,5.6
2019-02-08T13:02:50.849Z,5.6
2019-02-08T13:03:50.750Z,5.5
2019-02-08T13:04:51.046Z,5.5
2019-02-08T13:05:50.927Z,5.5
2019-02-08T13:06:50.824Z,5.5
2019-02-08T13:07:50.718Z,5.6
2019-02-08T13:08:50.609Z,5.6
2019-02-08T13:09:50.585Z,5.6
2019-02-08T13:10:50.473Z,5.6
2019-02-08T13:11:50.360Z,5.6
2019-02-08T13:12:50.241Z,5.6
2019-02-08T13:13:50.131Z,5.7
2019-02-08T13:14:50.471Z,5.7
2019-02-08T13:15:50.381Z,5.7
2019-02-08T13:16:50.281Z,5.7
2019-02-08T13:17:50.199Z,5.8
2019-02-08T13:18:52.860Z,5.9
2019-02-08T13:19:52.750Z,5.9
2019-02-08T13:20:52.651Z,5.9
2019-02-08T13:21:52.546Z,6
2019-02-08T13:22:52.447Z,6.1
2019-02-08T13:23:52.351Z,6.1
2019-02-08T13:24:52.706Z,6.1
2019-02-08T13:25:52.613Z,6.1
2019-02-08T13:26:53.704Z,6.1
2019-02-08T13:27:53.603Z,6.1
2019-02-08T13:28:54.431Z,6.1
2019-02-08T13:29:54.326Z,6.1
2019-02-08T13:30:54.243Z,6.1
2019-02-08T13:31:54.126Z,6.1
2019-02-08T13:32:54.037Z,5.9
2019-02-08T13:33:53.936Z,5.9
2019-02-08T13:34:54.248Z,5.8
2019-02-08T13:35:54.140Z,5.8
2019-02-08T13:36:54.075Z,5.8
2019-02-08T13:37:53.974Z,5.8
2019-02-08T13:38:53.870Z,5.8
2019-02-08T13:39:53.761Z,5.8
2019-02-08T13:40:53.653Z,5.8
2019-02-08T13:41:53.549Z,5.7
2019-02-08T13:42:53.449Z,5.7
2019-02-08T13:43:53.381Z,5.7
2019-02-08T13:44:53.671Z,5.7
2019-02-08T13:45:53.582Z,5.6
2019-02-08T13:46:53.492Z,5.6
2019-02-08T13:47:53.365Z,5.7
2019-02-08T13:48:53.259Z,5.6
2019-02-08T13:49:53.165Z,5.7
2019-02-08T13:50:53.051Z,5.6
2019-02-08T13:51:52.937Z,5.6
2019-02-08T13:52:52.832Z,5.5
2019-02-08T13:53:52.729Z,5.5
2019-02-08T13:54:53.058Z,5.5
2019-02-08T13:55:52.962Z,5.5
2019-02-08T13:57:00.281Z,5.4
2019-02-08T13:58:00.803Z,5.5
2019-02-08T13:59:00.697Z,5.4
2019-02-08T14:00:00.717Z,5.5
2019-02-08T14:01:00.625Z,5.5
2019-02-08T14:02:00.501Z,5.4
2019-02-08T14:03:00.414Z,5.4
2019-02-08T14:04:01.938Z,5.4
2019-02-08T14:05:02.501Z,5.4
2019-02-08T14:06:02.404Z,5.4
2019-02-08T14:07:02.305Z,5.3
2019-02-08T14:08:02.185Z,5.3
2019-02-08T14:09:02.088Z,5.3
2019-02-08T14:10:02.007Z,5.4
2019-02-08T14:11:01.947Z,5.4
2019-02-08T14:12:01.899Z,5.4
2019-02-08T14:13:01.805Z,5.5
2019-02-08T14:14:03.173Z,5.4
2019-02-08T14:15:03.507Z,5.4
2019-02-08T14:16:03.453Z,5.4